createdAt,value
2019-05-26T00:00:02.609Z,16.94
2019-05-26T00:02:43.860Z,16.94
2019-05-26T00:05:17.154Z,16.93
2019-05-26T00:07:51.014Z,16.91
2019-05-26T00:10:22.943Z,16.91
2019-05-26T00:13:00.320Z,16.96
2019-05-26T00:15:32.663Z,16.99
2019-05-26T00:18:04.873Z,17.00
2019-05-26T00:20:36.858Z,16.99
2019-05-26T00:23:15.559Z,17.01
2019-05-26T00:25:56.566Z,16.98
2019-05-26T00:28:28.609Z,16.95
2019-05-26T00:31:01.277Z,16.93
2019-05-26T00:33:51.473Z,16.91
2019-05-26T00:36:30.907Z,16.87
2019-05-26T00:39:05.466Z,16.86
2019-05-26T00:41:37.450Z,16.91
2019-05-26T00:44:11.199Z,16.91
2019-05-26T00:46:44.387Z,16.93
2019-05-26T00:49:16.878Z,16.93
2019-05-26T00:51:49.386Z,16.91
2019-05-26T00:54:21.814Z,16.90
2019-05-26T00:56:54.431Z,16.96
2019-05-26T00:59:27.299Z,17.01
2019-05-26T01:02:08.719Z,17.07
2019-05-26T01:04:40.898Z,17.09
2019-05-26T01:07:13.576Z,17.10
2019-05-26T01:10:05.327Z,17.13
2019-05-26T01:12:49.805Z,17.14
2019-05-26T01:15:22.623Z,17.17
2019-05-26T01:17:55.144Z,17.18
2019-05-26T01:20:27.775Z,17.19
2019-05-26T01:23:00.793Z,17.22
2019-05-26T01:25:33.623Z,17.24
2019-05-26T01:28:06.922Z,17.27
2019-05-26T01:30:40.526Z,17.27
2019-05-26T01:33:14.234Z,17.30
2019-05-26T01:35:47.222Z,17.31
2019-05-26T01:38:24.076Z,17.29
2019-05-26T01:40:56.102Z,17.29
2019-05-26T01:43:36.204Z,17.28
2019-05-26T01:46:08.502Z,17.29
2019-05-26T01:48:48.598Z,17.28
2019-05-26T01:51:20.851Z,17.24
2019-05-26T01:53:53.240Z,17.23
2019-05-26T01:56:25.511Z,17.13
2019-05-26T01:58:59.409Z,17.09
2019-05-26T02:01:30.979Z,17.03
2019-05-26T02:04:03.638Z,16.99
2019-05-26T02:06:36.583Z,16.96
2019-05-26T02:09:09.972Z,16.93
2019-05-26T02:11:42.260Z,16.95
2019-05-26T02:14:15.622Z,16.97
2019-05-26T02:16:49.685Z,16.96
2019-05-26T02:19:22.582Z,16.98
2019-05-26T02:21:55.786Z,17.01
2019-05-26T02:24:28.545Z,17.06
2019-05-26T02:27:01.828Z,17.09
2019-05-26T02:29:34.667Z,17.13
2019-05-26T02:32:07.749Z,17.17
2019-05-26T02:34:40.172Z,17.16
2019-05-26T02:37:11.767Z,17.16
2019-05-26T02:39:44.899Z,17.15
2019-05-26T02:42:19.021Z,17.16
2019-05-26T02:44:51.233Z,17.15
2019-05-26T02:47:23.190Z,17.13
2019-05-26T02:50:05.630Z,17.13
2019-05-26T02:52:46.362Z,17.16
2019-05-26T02:55:20.003Z,17.18
2019-05-26T02:57:52.383Z,17.17
2019-05-26T03:00:44.519Z,17.20
2019-05-26T03:03:17.860Z,17.22
2019-05-26T03:05:51.229Z,17.25
2019-05-26T03:08:24.780Z,17.15
2019-05-26T03:10:58.350Z,17.09
2019-05-26T03:13:33.234Z,17.03
2019-05-26T03:16:07.991Z,16.97
2019-05-26T03:18:42.904Z,16.96
2019-05-26T03:21:15.782Z,16.96
2019-05-26T03:23:53.644Z,16.96
2019-05-26T03:26:45.837Z,16.93
2019-05-26T03:29:18.558Z,16.78
2019-05-26T03:31:50.971Z,16.69
2019-05-26T03:34:24.498Z,16.65
2019-05-26T03:36:57.152Z,16.65
2019-05-26T03:39:43.489Z,16.66
2019-05-26T03:42:04.122Z,16.66
2019-05-26T03:44:48.892Z,16.63
2019-05-26T03:47:31.223Z,16.57
2019-05-26T03:50:05.654Z,16.55
2019-05-26T03:52:38.586Z,16.49
2019-05-26T03:55:18.114Z,16.41
2019-05-26T03:57:52.487Z,16.38
2019-05-26T04:00:24.761Z,16.32
2019-05-26T04:02:56.979Z,16.23
2019-05-26T04:05:28.786Z,16.16
2019-05-26T04:08:04.381Z,16.13
2019-05-26T04:10:34.671Z,16.12
2019-05-26T04:13:23.925Z,16.10
2019-05-26T04:15:56.318Z,16.16
2019-05-26T04:18:29.258Z,16.19
2019-05-26T04:21:02.318Z,16.19
2019-05-26T04:23:35.419Z,16.22
2019-05-26T04:26:07.874Z,16.28
2019-05-26T04:28:40.340Z,16.33
2019-05-26T04:31:13.475Z,16.33
2019-05-26T04:33:47.201Z,16.36
2019-05-26T04:36:22.073Z,16.37
2019-05-26T04:38:55.159Z,16.36
2019-05-26T04:41:38.305Z,16.37
2019-05-26T04:44:10.675Z,16.38
2019-05-26T04:46:46.069Z,16.38
2019-05-26T04:49:19.407Z,16.42
2019-05-26T04:51:51.182Z,16.43
2019-05-26T04:54:23.176Z,16.46
2019-05-26T04:56:55.340Z,16.46
2019-05-26T04:59:28.545Z,16.44
2019-05-26T05:02:00.228Z,16.40
2019-05-26T05:04:34.143Z,16.42
2019-05-26T05:07:06.363Z,16.45
2019-05-26T05:09:39.858Z,16.50
2019-05-26T05:12:13.792Z,16.51
2019-05-26T05:14:46.459Z,16.52
2019-05-26T05:17:17.931Z,16.39
2019-05-26T05:19:51.735Z,16.34
2019-05-26T05:22:25.793Z,16.32
2019-05-26T05:24:58.041Z,16.30
2019-05-26T05:27:30.234Z,16.30
2019-05-26T05:30:03.824Z,16.28
2019-05-26T05:32:36.749Z,16.25
2019-05-26T05:35:10.257Z,16.20
2019-05-26T05:37:42.890Z,16.12
2019-05-26T05:40:35.027Z,16.14
2019-05-26T05:43:08.402Z,16.18
2019-05-26T05:45:40.584Z,16.18
2019-05-26T05:48:13.859Z,16.22
2019-05-26T05:50:48.293Z,16.22
2019-05-26T05:53:20.955Z,16.16
2019-05-26T05:55:54.689Z,16.23
2019-05-26T05:58:27.719Z,16.30
2019-05-26T06:01:00.564Z,16.37
2019-05-26T06:03:32.575Z,16.44
2019-05-26T06:06:06.281Z,16.47
2019-05-26T06:08:38.669Z,16.53
2019-05-26T06:11:16.703Z,16.54
2019-05-26T06:13:46.663Z,16.54
2019-05-26T06:16:18.676Z,16.53
2019-05-26T06:18:51.055Z,16.45
2019-05-26T06:21:24.036Z,16.42
2019-05-26T06:23:56.849Z,16.43
2019-05-26T06:26:28.538Z,16.47
2019-05-26T06:29:01.913Z,16.49
2019-05-26T06:31:35.147Z,16.52
2019-05-26T06:34:28.305Z,16.48
2019-05-26T06:37:00.700Z,16.46
2019-05-26T06:39:33.294Z,16.45
2019-05-26T06:42:05.664Z,16.44
2019-05-26T06:44:52.604Z,16.49
2019-05-26T06:47:12.833Z,16.56
2019-05-26T06:49:45.763Z,16.58
2019-05-26T06:52:18.438Z,16.50
2019-05-26T06:54:51.369Z,16.47
2019-05-26T06:57:22.967Z,16.42
2019-05-26T06:59:55.266Z,16.44
2019-05-26T07:02:26.917Z,16.36
2019-05-26T07:05:09.762Z,16.38
2019-05-26T07:07:42.892Z,16.46
2019-05-26T07:10:17.318Z,16.53
2019-05-26T07:12:49.953Z,16.50
2019-05-26T07:15:21.884Z,16.54
2019-05-26T07:17:55.222Z,16.44
2019-05-26T07:20:27.334Z,16.48
2019-05-26T07:22:59.535Z,16.47
2019-05-26T07:25:51.928Z,16.34
2019-05-26T07:28:31.270Z,16.19
2019-05-26T07:31:04.539Z,16.14
2019-05-26T07:33:37.757Z,16.20
2019-05-26T07:36:11.501Z,16.33
2019-05-26T07:38:43.963Z,16.24
2019-05-26T07:41:16.511Z,16.15
2019-05-26T07:44:01.578Z,16.23
2019-05-26T07:46:40.227Z,16.24
2019-05-26T07:49:13.808Z,16.33
2019-05-26T07:51:46.768Z,16.58
2019-05-26T07:54:25.530Z,16.90
2019-05-26T07:56:52.657Z,17.26
2019-05-26T07:59:25.451Z,17.43
2019-05-26T08:01:58.101Z,17.52
2019-05-26T08:04:31.032Z,17.55
2019-05-26T08:07:03.845Z,17.67
2019-05-26T08:09:36.919Z,17.72
2019-05-26T08:12:24.946Z,17.75
2019-05-26T08:14:54.806Z,17.74
2019-05-26T08:17:27.219Z,17.74
2019-05-26T08:19:59.417Z,17.98
2019-05-26T08:22:33.155Z,18.22
2019-05-26T08:25:05.287Z,18.32
2019-05-26T08:27:37.643Z,18.45
2019-05-26T08:30:09.793Z,18.63
2019-05-26T08:32:42.756Z,18.60
2019-05-26T08:35:23.728Z,18.53
2019-05-26T08:37:58.440Z,18.38
2019-05-26T08:40:31.142Z,18.24
2019-05-26T08:43:03.656Z,18.20
2019-05-26T08:45:37.173Z,18.26
2019-05-26T08:48:10.337Z,18.38
2019-05-26T08:50:43.484Z,18.49
2019-05-26T08:53:15.489Z,18.50
2019-05-26T08:55:48.290Z,18.44
2019-05-26T08:58:21.340Z,18.33
2019-05-26T09:00:54.627Z,18.35
2019-05-26T09:03:27.927Z,18.31
2019-05-26T09:06:01.369Z,18.27
2019-05-26T09:08:40.320Z,18.22
2019-05-26T09:11:13.339Z,17.96
2019-05-26T09:13:46.095Z,17.73
2019-05-26T09:16:20.290Z,17.74
2019-05-26T09:18:52.273Z,17.78
2019-05-26T09:21:24.518Z,17.76
2019-05-26T09:23:57.979Z,17.73
2019-05-26T09:26:39.168Z,17.66
2019-05-26T09:29:12.097Z,17.65
2019-05-26T09:31:43.854Z,17.65
2019-05-26T09:34:28.409Z,17.65
2019-05-26T09:37:01.199Z,17.59
2019-05-26T09:39:40.709Z,17.48
2019-05-26T09:42:12.858Z,17.42
2019-05-26T09:44:45.345Z,17.43
2019-05-26T09:47:18.141Z,17.50
2019-05-26T09:49:50.493Z,17.56
2019-05-26T09:52:21.915Z,17.71
2019-05-26T09:54:54.188Z,17.76
2019-05-26T09:57:26.766Z,17.95
2019-05-26T09:59:59.409Z,18.17
2019-05-26T10:02:32.254Z,18.37
2019-05-26T10:05:04.246Z,18.56
2019-05-26T10:07:36.999Z,18.77
2019-05-26T10:10:09.595Z,18.99
2019-05-26T10:12:42.023Z,19.10
2019-05-26T10:15:14.411Z,19.39
2019-05-26T10:17:49.357Z,19.72
2019-05-26T10:20:21.997Z,20.19
2019-05-26T10:22:54.380Z,20.49
2019-05-26T10:25:37.009Z,20.33
2019-05-26T10:28:09.883Z,19.98
2019-05-26T10:30:44.297Z,19.82
2019-05-26T10:33:17.104Z,19.64
2019-05-26T10:35:49.049Z,19.47
2019-05-26T10:38:22.441Z,19.28
2019-05-26T10:40:55.021Z,19.14
2019-05-26T10:43:27.217Z,19.08
2019-05-26T10:46:00.200Z,18.96
2019-05-26T10:48:32.807Z,18.82
2019-05-26T10:51:06.983Z,18.82
2019-05-26T10:53:38.521Z,18.70
2019-05-26T10:56:10.766Z,18.69
2019-05-26T10:58:42.941Z,18.65
2019-05-26T11:01:16.821Z,18.73
2019-05-26T11:03:49.560Z,18.71
2019-05-26T11:06:21.912Z,18.71
2019-05-26T11:08:54.819Z,18.71
2019-05-26T11:11:27.683Z,18.80
2019-05-26T11:14:03.091Z,18.95
2019-05-26T11:16:35.330Z,18.92
2019-05-26T11:19:07.839Z,19.05
2019-05-26T11:21:41.069Z,19.23
2019-05-26T11:24:13.406Z,19.36
2019-05-26T11:26:45.474Z,19.61
2019-05-26T11:29:18.949Z,20.15
2019-05-26T11:31:52.206Z,20.54
2019-05-26T11:34:24.493Z,20.81
2019-05-26T11:36:57.205Z,20.78
2019-05-26T11:39:38.251Z,20.78
2019-05-26T11:42:13.749Z,20.74
2019-05-26T11:44:46.033Z,20.90
2019-05-26T11:47:18.795Z,21.03
2019-05-26T11:49:51.717Z,20.92
2019-05-26T11:52:24.110Z,20.78
2019-05-26T11:54:56.549Z,20.82
2019-05-26T11:57:28.363Z,21.02
2019-05-26T12:00:01.743Z,21.25
2019-05-26T12:02:34.037Z,21.50
2019-05-26T12:05:06.424Z,21.73
2019-05-26T12:07:38.998Z,21.80
2019-05-26T12:10:14.239Z,22.05
2019-05-26T12:12:46.330Z,22.44
2019-05-26T12:15:19.460Z,22.78
2019-05-26T12:17:52.112Z,22.98
2019-05-26T12:20:24.574Z,23.17
2019-05-26T12:22:57.276Z,23.49
2019-05-26T12:25:30.882Z,23.85
2019-05-26T12:28:03.272Z,24.14
2019-05-26T12:30:34.767Z,24.18
2019-05-26T12:33:06.888Z,24.19
2019-05-26T12:35:49.464Z,23.94
2019-05-26T12:38:30.108Z,23.59
2019-05-26T12:41:03.613Z,23.29
2019-05-26T12:43:36.769Z,23.10
2019-05-26T12:46:10.419Z,23.01
2019-05-26T12:48:43.062Z,22.82
2019-05-26T12:51:16.506Z,22.74
2019-05-26T12:53:48.809Z,22.55
2019-05-26T12:56:22.804Z,22.47
2019-05-26T12:58:56.066Z,22.48
2019-05-26T13:01:28.388Z,22.43
2019-05-26T13:04:09.536Z,22.42
2019-05-26T13:06:42.224Z,22.48
2019-05-26T13:09:15.742Z,22.48
2019-05-26T13:11:47.787Z,22.55
2019-05-26T13:14:20.706Z,22.58
2019-05-26T13:16:52.762Z,22.59
2019-05-26T13:19:24.901Z,22.56
2019-05-26T13:21:56.201Z,22.55
2019-05-26T13:24:29.612Z,22.43
2019-05-26T13:27:02.248Z,22.38
2019-05-26T13:29:35.014Z,22.36
2019-05-26T13:32:08.308Z,22.28
2019-05-26T13:34:41.382Z,22.28
2019-05-26T13:37:22.274Z,22.26
2019-05-26T13:39:55.097Z,22.18
2019-05-26T13:42:36.797Z,22.10
2019-05-26T13:45:23.211Z,21.92
2019-05-26T13:47:53.163Z,21.73
2019-05-26T13:50:24.937Z,21.73
2019-05-26T13:52:57.088Z,21.76
2019-05-26T13:55:30.663Z,21.75
2019-05-26T13:58:02.564Z,21.68
2019-05-26T14:00:35.446Z,21.60
2019-05-26T14:03:07.877Z,21.58
2019-05-26T14:05:39.871Z,21.70
2019-05-26T14:08:12.629Z,21.93
2019-05-26T14:10:43.923Z,21.98
2019-05-26T14:13:21.934Z,21.99
2019-05-26T14:16:13.415Z,22.03
2019-05-26T14:18:46.564Z,22.00
2019-05-26T14:21:19.140Z,21.99
2019-05-26T14:23:51.681Z,21.96
2019-05-26T14:26:24.598Z,22.00
2019-05-26T14:28:59.762Z,22.00
2019-05-26T14:31:31.008Z,22.03
2019-05-26T14:34:03.518Z,22.07
2019-05-26T14:36:36.946Z,21.98
2019-05-26T14:39:12.451Z,21.81
2019-05-26T14:41:45.058Z,21.74
2019-05-26T14:44:27.847Z,21.71
2019-05-26T14:47:00.296Z,21.74
2019-05-26T14:49:32.212Z,21.84
2019-05-26T14:52:05.342Z,21.83
2019-05-26T14:54:37.123Z,21.82
2019-05-26T14:57:08.198Z,21.72
2019-05-26T14:59:39.836Z,21.69
2019-05-26T15:02:12.020Z,21.62
2019-05-26T15:04:44.422Z,21.56
2019-05-26T15:07:17.955Z,21.41
2019-05-26T15:09:50.563Z,21.34
2019-05-26T15:12:22.196Z,21.19
2019-05-26T15:14:53.715Z,21.12
2019-05-26T15:17:25.055Z,21.24
2019-05-26T15:19:56.736Z,21.20
2019-05-26T15:22:28.236Z,21.23
2019-05-26T15:25:02.515Z,21.17
2019-05-26T15:27:33.875Z,21.32
2019-05-26T15:30:06.575Z,21.40
2019-05-26T15:32:38.080Z,21.30
2019-05-26T15:35:12.122Z,21.26
2019-05-26T15:37:44.035Z,21.18
2019-05-26T15:40:16.198Z,21.10
2019-05-26T15:42:48.856Z,21.07
2019-05-26T15:45:21.379Z,21.02
2019-05-26T15:47:53.644Z,20.97
2019-05-26T15:50:26.019Z,20.97
2019-05-26T15:52:58.636Z,20.96
2019-05-26T15:55:31.661Z,20.92
2019-05-26T15:58:03.680Z,20.97
2019-05-26T16:00:34.898Z,21.03
2019-05-26T16:03:06.842Z,21.03
2019-05-26T16:05:38.775Z,21.01
2019-05-26T16:08:09.922Z,20.77
2019-05-26T16:10:42.369Z,20.71
2019-05-26T16:13:13.806Z,20.72
2019-05-26T16:15:45.644Z,20.63
2019-05-26T16:18:17.323Z,20.60
2019-05-26T16:21:02.348Z,20.64
2019-05-26T16:23:24.323Z,20.62
2019-05-26T16:25:56.618Z,20.65
2019-05-26T16:28:28.246Z,20.70
2019-05-26T16:31:00.776Z,20.64
2019-05-26T16:33:33.935Z,20.56
2019-05-26T16:36:06.587Z,20.56
2019-05-26T16:38:38.464Z,20.54
2019-05-26T16:41:11.750Z,20.50
2019-05-26T16:43:44.099Z,20.51
2019-05-26T16:46:17.119Z,20.38
2019-05-26T16:48:48.522Z,20.33
2019-05-26T16:51:20.768Z,20.37
2019-05-26T16:53:52.496Z,20.35
2019-05-26T16:56:24.743Z,20.38
2019-05-26T16:58:57.317Z,20.41
2019-05-26T17:01:29.990Z,20.39
2019-05-26T17:04:03.732Z,20.28
2019-05-26T17:06:37.425Z,20.22
2019-05-26T17:09:10.529Z,20.21
2019-05-26T17:11:43.140Z,20.20
2019-05-26T17:14:15.416Z,20.20
2019-05-26T17:16:48.358Z,20.12
2019-05-26T17:19:20.736Z,20.12
2019-05-26T17:21:54.034Z,20.15
2019-05-26T17:24:25.098Z,20.14
2019-05-26T17:26:57.110Z,20.13
2019-05-26T17:29:28.636Z,20.07
2019-05-26T17:32:01.567Z,19.98
2019-05-26T17:34:33.304Z,19.87
2019-05-26T17:37:04.415Z,19.76
2019-05-26T17:39:37.179Z,19.71
2019-05-26T17:42:09.379Z,19.78
2019-05-26T17:44:41.039Z,19.80
2019-05-26T17:47:28.818Z,19.73
2019-05-26T17:49:46.472Z,19.72
2019-05-26T17:52:18.016Z,19.70
2019-05-26T17:54:50.188Z,19.68
2019-05-26T17:57:23.142Z,19.64
2019-05-26T17:59:56.003Z,19.59
2019-05-26T18:02:27.481Z,19.59
2019-05-26T18:04:59.322Z,19.55
2019-05-26T18:07:30.923Z,19.51
2019-05-26T18:10:02.629Z,19.47
2019-05-26T18:12:34.034Z,19.49
2019-05-26T18:15:06.050Z,19.56
2019-05-26T18:17:46.990Z,19.58
2019-05-26T18:20:13.978Z,19.59
2019-05-26T18:22:47.411Z,19.57
2019-05-26T18:25:19.805Z,19.56
2019-05-26T18:27:51.481Z,19.55
2019-05-26T18:30:23.854Z,19.49
2019-05-26T18:32:55.800Z,19.45
2019-05-26T18:35:28.818Z,19.39
2019-05-26T18:38:01.340Z,19.37
2019-05-26T18:40:33.128Z,19.38
2019-05-26T18:43:04.621Z,19.39
2019-05-26T18:45:37.548Z,19.34
2019-05-26T18:48:10.091Z,19.27
2019-05-26T18:50:41.796Z,19.22
2019-05-26T18:53:13.291Z,19.15
2019-05-26T18:55:46.112Z,19.06
2019-05-26T18:58:18.701Z,18.97
2019-05-26T19:00:51.093Z,19.00
2019-05-26T19:03:24.223Z,18.96
2019-05-26T19:05:57.424Z,18.89
2019-05-26T19:08:30.182Z,18.88
2019-05-26T19:11:02.945Z,18.83
2019-05-26T19:13:34.824Z,18.82
2019-05-26T19:16:06.556Z,18.81
2019-05-26T19:18:39.543Z,18.78
2019-05-26T19:21:12.726Z,18.80
2019-05-26T19:23:44.466Z,18.77
2019-05-26T19:26:16.005Z,18.60
2019-05-26T19:28:47.886Z,18.56
2019-05-26T19:31:18.986Z,18.55
2019-05-26T19:33:51.807Z,18.56
2019-05-26T19:36:23.169Z,18.47
2019-05-26T19:38:55.013Z,18.42
2019-05-26T19:41:27.813Z,18.40
2019-05-26T19:43:59.533Z,18.44
2019-05-26T19:46:53.075Z,18.40
2019-05-26T19:49:24.932Z,18.33
2019-05-26T19:51:58.272Z,18.20
2019-05-26T19:54:30.509Z,18.19
2019-05-26T19:57:03.833Z,18.17
2019-05-26T19:59:35.003Z,18.17
2019-05-26T20:02:17.802Z,18.18
2019-05-26T20:04:39.976Z,18.18
2019-05-26T20:07:11.258Z,18.20
2019-05-26T20:09:42.912Z,18.16
2019-05-26T20:12:15.932Z,18.10
2019-05-26T20:14:47.195Z,18.09
2019-05-26T20:17:18.692Z,18.05
2019-05-26T20:19:51.218Z,18.07
2019-05-26T20:22:24.558Z,18.09
2019-05-26T20:24:55.814Z,18.07
2019-05-26T20:27:28.212Z,18.05
2019-05-26T20:30:00.578Z,17.95
2019-05-26T20:32:32.545Z,18.01
2019-05-26T20:35:04.512Z,17.96
2019-05-26T20:37:36.006Z,17.95
2019-05-26T20:40:08.052Z,17.92
2019-05-26T20:42:39.852Z,17.93
2019-05-26T20:45:12.353Z,17.91
2019-05-26T20:47:43.694Z,17.81
2019-05-26T20:50:28.023Z,17.74
2019-05-26T20:52:49.480Z,17.72
2019-05-26T20:55:21.773Z,17.75
2019-05-26T20:57:53.612Z,17.68
2019-05-26T21:00:26.274Z,17.62
2019-05-26T21:03:00.298Z,17.63
2019-05-26T21:05:31.714Z,17.61
2019-05-26T21:08:04.272Z,17.56
2019-05-26T21:10:36.873Z,17.55
2019-05-26T21:13:10.714Z,17.59
2019-05-26T21:15:41.895Z,17.65
2019-05-26T21:18:15.933Z,17.71
2019-05-26T21:20:49.537Z,17.71
2019-05-26T21:23:22.758Z,17.72
2019-05-26T21:25:56.089Z,17.74
2019-05-26T21:28:28.631Z,17.82
2019-05-26T21:30:59.871Z,17.84
2019-05-26T21:33:33.810Z,17.84
2019-05-26T21:36:07.215Z,17.80
2019-05-26T21:38:39.454Z,17.77
2019-05-26T21:41:12.493Z,17.77
2019-05-26T21:43:47.526Z,17.76
2019-05-26T21:46:22.028Z,17.73
2019-05-26T21:49:03.608Z,17.68
2019-05-26T21:51:36.340Z,17.62
2019-05-26T21:54:12.820Z,17.59
2019-05-26T21:56:45.217Z,17.52
2019-05-26T21:59:16.951Z,17.52
2019-05-26T22:01:49.409Z,17.53
2019-05-26T22:04:21.391Z,17.53
2019-05-26T22:06:55.310Z,17.56
2019-05-26T22:09:26.955Z,17.49
2019-05-26T22:11:59.054Z,17.47
2019-05-26T22:14:32.438Z,17.49
2019-05-26T22:17:05.348Z,17.52
2019-05-26T22:19:38.472Z,17.48
2019-05-26T22:22:11.185Z,17.50
2019-05-26T22:24:46.791Z,17.51
2019-05-26T22:27:19.931Z,17.56
2019-05-26T22:30:09.851Z,17.59
2019-05-26T22:32:43.740Z,17.58
2019-05-26T22:35:16.495Z,17.63
2019-05-26T22:37:48.698Z,17.63
2019-05-26T22:40:21.837Z,17.60
2019-05-26T22:42:55.164Z,17.61
2019-05-26T22:45:27.780Z,17.61
2019-05-26T22:48:00.012Z,17.60
2019-05-26T22:50:32.453Z,17.55
2019-05-26T22:53:05.212Z,17.53
2019-05-26T22:55:46.861Z,17.53
2019-05-26T22:58:19.746Z,17.55
2019-05-26T23:00:52.977Z,17.54
2019-05-26T23:03:26.458Z,17.55
2019-05-26T23:05:59.196Z,17.54
2019-05-26T23:08:31.621Z,17.51
2019-05-26T23:11:04.637Z,17.49
2019-05-26T23:13:37.816Z,17.47
2019-05-26T23:16:10.706Z,17.46
2019-05-26T23:18:43.131Z,17.45
2019-05-26T23:21:17.937Z,17.43
2019-05-26T23:23:59.980Z,17.43
2019-05-26T23:26:32.754Z,17.39
2019-05-26T23:29:04.535Z,17.40
2019-05-26T23:31:47.606Z,17.40
2019-05-26T23:34:20.408Z,17.42
2019-05-26T23:36:53.129Z,17.42
2019-05-26T23:39:26.531Z,17.40
2019-05-26T23:41:59.377Z,17.42
2019-05-26T23:44:33.144Z,17.46
2019-05-26T23:47:06.410Z,17.49
2019-05-26T23:49:38.866Z,17.50
2019-05-26T23:52:11.485Z,17.48
2019-05-26T23:54:45.177Z,17.46
2019-05-26T23:57:24.872Z,17.46
2019-05-26T23:59:57.136Z,17.46
